createdAt,value
2018-12-04T00:00:09.039Z,50.33
2018-12-04T00:02:37.629Z,45.30
2018-12-04T00:05:06.167Z,54.53
2018-12-04T00:07:34.672Z,54.93
2018-12-04T00:10:03.834Z,62.23
2018-12-04T00:12:32.299Z,48.00
2018-12-04T00:15:00.779Z,51.43
2018-12-04T00:17:29.246Z,52.63
2018-12-04T00:19:58.096Z,57.50
2018-12-04T00:22:26.577Z,61.47
2018-12-04T00:24:55.027Z,54.07
2018-12-04T00:27:23.737Z,49.57
2018-12-04T00:29:52.237Z,50.43
2018-12-04T00:32:20.703Z,44.53
2018-12-04T00:34:49.120Z,46.13
2018-12-04T00:37:17.639Z,41.00
2018-12-04T00:39:46.148Z,44.73
2018-12-04T00:42:14.600Z,42.80
2018-12-04T00:44:43.074Z,40.33
2018-12-04T00:47:11.522Z,39.90
2018-12-04T00:49:39.983Z,38.37
2018-12-04T00:52:08.488Z,38.13
2018-12-04T00:54:36.946Z,39.63
2018-12-04T00:57:05.413Z,38.13
2018-12-04T00:59:33.907Z,44.00
2018-12-04T01:02:02.460Z,40.13
2018-12-04T01:04:30.981Z,41.87
2018-12-04T01:06:59.472Z,39.83
2018-12-04T01:09:27.969Z,38.23
2018-12-04T01:11:56.417Z,38.50
2018-12-04T01:14:24.913Z,36.87
2018-12-04T01:16:53.364Z,37.20
2018-12-04T01:19:23.526Z,44.43
2018-12-04T01:21:51.967Z,42.47
2018-12-04T01:24:20.473Z,45.90
2018-12-04T01:26:49.542Z,46.67
2018-12-04T01:29:18.009Z,44.53
2018-12-04T01:31:46.687Z,46.73
2018-12-04T01:34:15.141Z,38.50
2018-12-04T01:36:43.602Z,40.83
2018-12-04T01:39:12.050Z,37.03
2018-12-04T01:41:42.615Z,30.13
2018-12-04T01:44:11.103Z,31.73
2018-12-04T01:46:39.575Z,29.13
2018-12-04T01:49:07.996Z,32.50
2018-12-04T01:51:36.531Z,32.10
2018-12-04T01:54:04.943Z,29.97
2018-12-04T01:56:33.383Z,28.97
2018-12-04T01:59:01.867Z,33.20
2018-12-04T02:01:30.325Z,31.87
2018-12-04T02:04:00.779Z,30.80
2018-12-04T02:06:29.243Z,31.00
2018-12-04T02:08:57.668Z,30.50
2018-12-04T02:11:26.072Z,35.57
2018-12-04T02:13:54.540Z,42.20
2018-12-04T02:16:22.983Z,40.17
2018-12-04T02:18:51.452Z,35.43
2018-12-04T02:21:19.928Z,33.53
2018-12-04T02:23:48.625Z,32.90
2018-12-04T02:26:17.357Z,34.00
2018-12-04T02:28:48.783Z,31.20
2018-12-04T02:31:17.268Z,32.90
2018-12-04T02:33:45.688Z,34.00
2018-12-04T02:36:14.153Z,31.80
2018-12-04T02:38:42.579Z,48.70
2018-12-04T02:41:11.067Z,36.83
2018-12-04T02:43:39.890Z,33.23
2018-12-04T02:46:08.311Z,29.00
2018-12-04T02:48:36.726Z,33.33
2018-12-04T02:51:05.227Z,34.20
2018-12-04T02:53:35.342Z,34.10
2018-12-04T02:56:03.761Z,36.97
2018-12-04T02:58:32.224Z,32.40
2018-12-04T03:01:00.654Z,32.07
2018-12-04T03:03:29.190Z,33.17
2018-12-04T03:05:57.681Z,35.20
2018-12-04T03:08:26.120Z,36.40
2018-12-04T03:10:55.032Z,33.60
2018-12-04T03:13:23.577Z,35.27
2018-12-04T03:15:52.084Z,34.20
2018-12-04T03:18:20.524Z,36.67
2018-12-04T03:20:49.084Z,33.97
2018-12-04T03:23:17.812Z,36.20
2018-12-04T03:25:46.271Z,33.67
2018-12-04T03:28:15.083Z,37.10
2018-12-04T03:30:43.549Z,33.33
2018-12-04T03:33:16.322Z,34.47
2018-12-04T03:35:44.772Z,31.97
2018-12-04T03:38:13.486Z,33.17
2018-12-04T03:40:41.985Z,35.57
2018-12-04T03:43:10.808Z,31.97
2018-12-04T03:45:39.698Z,34.10
2018-12-04T03:48:08.163Z,34.43
2018-12-04T03:50:38.603Z,32.67
2018-12-04T03:53:07.129Z,32.97
2018-12-04T03:55:35.646Z,33.47
2018-12-04T03:58:04.224Z,33.20
2018-12-04T04:00:32.814Z,30.50
2018-12-04T04:03:01.319Z,32.20
2018-12-04T04:05:29.744Z,35.20
2018-12-04T04:07:58.206Z,32.07
2018-12-04T04:10:26.711Z,30.67
2018-12-04T04:12:55.143Z,33.63
2018-12-04T04:15:23.612Z,33.03
2018-12-04T04:17:52.111Z,31.20
2018-12-04T04:20:20.590Z,31.00
2018-12-04T04:22:49.176Z,33.47
2018-12-04T04:25:17.657Z,34.50
2018-12-04T04:27:46.130Z,31.07
2018-12-04T04:30:14.850Z,34.10
2018-12-04T04:32:43.336Z,35.70
2018-12-04T04:35:12.024Z,35.73
2018-12-04T04:37:40.732Z,33.80
2018-12-04T04:40:09.569Z,35.00
2018-12-04T04:42:38.257Z,39.10
2018-12-04T04:45:06.863Z,41.40
2018-12-04T04:47:35.353Z,39.13
2018-12-04T04:50:04.147Z,38.87
2018-12-04T04:52:32.606Z,35.83
2018-12-04T04:55:01.108Z,35.93
2018-12-04T04:57:29.549Z,34.97
2018-12-04T04:59:58.106Z,38.77
2018-12-04T05:02:26.600Z,35.00
2018-12-04T05:04:55.097Z,33.80
2018-12-04T05:07:23.572Z,39.23
2018-12-04T05:09:52.078Z,41.80
2018-12-04T05:12:20.510Z,37.83
2018-12-04T05:14:48.939Z,41.27
2018-12-04T05:17:17.583Z,58.13
2018-12-04T05:19:46.059Z,47.23
2018-12-04T05:22:14.885Z,41.50
2018-12-04T05:24:43.388Z,37.03
2018-12-04T05:27:13.443Z,37.37
2018-12-04T05:29:42.168Z,39.20
2018-12-04T05:32:10.657Z,35.50
2018-12-04T05:34:39.151Z,38.80
2018-12-04T05:37:08.003Z,38.00
2018-12-04T05:39:36.500Z,47.90
2018-12-04T05:42:04.987Z,39.73
2018-12-04T05:44:33.471Z,39.40
2018-12-04T05:47:01.978Z,41.43
2018-12-04T05:49:30.452Z,39.73
2018-12-04T05:52:00.556Z,44.67
2018-12-04T05:54:29.048Z,40.77
2018-12-04T05:56:57.489Z,39.37
2018-12-04T05:59:25.959Z,38.07
2018-12-04T06:01:54.456Z,37.87
2018-12-04T06:04:22.950Z,36.43
2018-12-04T06:06:51.406Z,38.00
2018-12-04T06:09:19.924Z,42.20
2018-12-04T06:11:48.412Z,37.87
2018-12-04T06:14:16.912Z,41.47
2018-12-04T06:16:45.448Z,38.83
2018-12-04T06:19:13.935Z,37.90
2018-12-04T06:21:42.440Z,35.80
2018-12-04T06:24:10.928Z,36.97
2018-12-04T06:26:39.407Z,36.60
2018-12-04T06:29:07.881Z,39.93
2018-12-04T06:31:36.422Z,39.63
2018-12-04T06:34:05.024Z,36.40
2018-12-04T06:36:33.502Z,42.03
2018-12-04T06:39:01.985Z,49.17
2018-12-04T06:41:30.440Z,40.37
2018-12-04T06:43:58.935Z,34.07
2018-12-04T06:46:27.424Z,31.03
2018-12-04T06:48:55.855Z,31.87
2018-12-04T06:51:24.317Z,28.30
2018-12-04T06:53:52.833Z,29.93
2018-12-04T06:56:21.274Z,27.57
2018-12-04T06:58:49.999Z,29.23
2018-12-04T07:01:18.602Z,29.93
2018-12-04T07:03:47.022Z,30.93
2018-12-04T07:06:16.504Z,28.77
2018-12-04T07:08:44.964Z,46.27
2018-12-04T07:11:13.632Z,52.80
2018-12-04T07:13:42.096Z,35.27
2018-12-04T07:16:10.561Z,28.97
2018-12-04T07:18:39.071Z,38.20
2018-12-04T07:21:07.557Z,28.93
2018-12-04T07:23:36.088Z,31.70
2018-12-04T07:26:04.849Z,31.83
2018-12-04T07:28:33.571Z,29.60
2018-12-04T07:31:02.046Z,33.40
2018-12-04T07:33:30.787Z,30.83
2018-12-04T07:35:59.463Z,27.47
2018-12-04T07:38:28.003Z,30.20
2018-12-04T07:40:56.842Z,31.53
2018-12-04T07:43:25.305Z,25.20
2018-12-04T07:45:53.820Z,35.33
2018-12-04T07:48:24.214Z,36.40
2018-12-04T07:50:52.696Z,35.80
2018-12-04T07:53:21.240Z,25.47
2018-12-04T07:55:49.736Z,22.17
2018-12-04T07:58:18.176Z,20.10
2018-12-04T08:00:46.684Z,28.43
2018-12-04T08:03:15.154Z,20.10
2018-12-04T08:05:43.642Z,20.60
2018-12-04T08:08:12.140Z,24.37
2018-12-04T08:10:42.579Z,23.63
2018-12-04T08:13:11.280Z,22.93
2018-12-04T08:15:39.849Z,21.27
2018-12-04T08:18:08.929Z,17.33
2018-12-04T08:20:39.679Z,18.93
2018-12-04T08:23:08.387Z,23.00
2018-12-04T08:25:36.835Z,23.10
2018-12-04T08:28:05.269Z,16.80
2018-12-04T08:30:33.784Z,18.20
2018-12-04T08:33:02.244Z,16.33
2018-12-04T08:35:30.710Z,21.30
2018-12-04T08:37:59.322Z,21.23
2018-12-04T08:40:27.796Z,15.17
2018-12-04T08:42:59.677Z,16.00
2018-12-04T08:45:28.193Z,15.57
2018-12-04T08:47:56.675Z,18.93
2018-12-04T08:50:25.156Z,15.03
2018-12-04T08:52:53.647Z,14.10
2018-12-04T08:55:22.770Z,15.77
2018-12-04T08:57:51.477Z,14.33
2018-12-04T09:00:20.343Z,14.77
2018-12-04T09:02:50.572Z,15.17
2018-12-04T09:05:19.197Z,18.63
2018-12-04T09:07:47.802Z,14.80
2018-12-04T09:10:16.276Z,16.10
2018-12-04T09:12:44.780Z,17.57
2018-12-04T09:15:13.265Z,15.27
2018-12-04T09:17:41.724Z,18.97
2018-12-04T09:20:10.237Z,14.80
2018-12-04T09:22:38.834Z,20.40
2018-12-04T09:25:07.415Z,15.93
2018-12-04T09:27:35.949Z,14.17
2018-12-04T09:30:07.776Z,16.13
2018-12-04T09:32:36.537Z,15.40
2018-12-04T09:35:07.150Z,13.50
2018-12-04T09:37:35.664Z,11.47
2018-12-04T09:40:05.660Z,10.20
2018-12-04T09:42:34.146Z,14.23
2018-12-04T09:45:02.648Z,14.30
2018-12-04T09:47:33.045Z,11.20
2018-12-04T09:50:01.479Z,12.57
2018-12-04T09:52:29.976Z,13.13
2018-12-04T09:54:58.428Z,13.33
2018-12-04T09:57:26.900Z,22.57
2018-12-04T09:59:55.397Z,16.33
2018-12-04T10:02:23.837Z,15.47
2018-12-04T10:04:52.339Z,17.43
2018-12-04T10:07:20.844Z,14.70
2018-12-04T10:09:49.363Z,14.57
2018-12-04T10:12:17.849Z,13.23
2018-12-04T10:14:46.340Z,13.63
2018-12-04T10:17:15.031Z,16.70
2018-12-04T10:19:43.920Z,12.40
2018-12-04T10:22:16.325Z,12.77
2018-12-04T10:24:45.754Z,12.77
2018-12-04T10:27:14.197Z,12.13
2018-12-04T10:29:43.399Z,11.93
2018-12-04T10:32:12.300Z,15.80
2018-12-04T10:34:40.764Z,13.90
2018-12-04T10:37:09.241Z,13.50
2018-12-04T10:39:37.721Z,14.63
2018-12-04T10:42:06.197Z,15.13
2018-12-04T10:44:34.728Z,14.90
2018-12-04T10:47:03.216Z,17.13
2018-12-04T10:49:31.634Z,13.80
2018-12-04T10:52:00.091Z,12.57
2018-12-04T10:54:28.594Z,12.30
2018-12-04T10:56:57.081Z,21.73
2018-12-04T10:59:25.608Z,13.47
2018-12-04T11:01:59.696Z,11.23
2018-12-04T11:04:28.202Z,16.33
2018-12-04T11:06:56.892Z,14.00
2018-12-04T11:09:25.381Z,12.87
2018-12-04T11:11:54.068Z,12.40
2018-12-04T11:14:22.519Z,12.67
2018-12-04T11:16:52.020Z,15.33
2018-12-04T11:19:21.256Z,22.20
2018-12-04T11:21:49.765Z,15.53
2018-12-04T11:24:18.915Z,14.50
2018-12-04T11:26:47.392Z,10.97
2018-12-04T11:29:15.790Z,12.37
2018-12-04T11:31:44.437Z,13.17
2018-12-04T11:34:13.000Z,15.17
2018-12-04T11:36:41.921Z,14.00
2018-12-04T11:39:10.424Z,12.90
2018-12-04T11:41:39.513Z,11.97
2018-12-04T11:44:08.200Z,16.23
2018-12-04T11:46:36.668Z,13.43
2018-12-04T11:49:05.192Z,14.93
2018-12-04T11:51:34.103Z,19.40
2018-12-04T11:54:02.520Z,17.17
2018-12-04T11:56:31.024Z,18.37
2018-12-04T11:58:59.483Z,20.70
2018-12-04T12:01:29.649Z,18.10
2018-12-04T12:03:58.509Z,46.20
2018-12-04T12:06:27.645Z,16.60
2018-12-04T12:08:58.840Z,14.87
2018-12-04T12:11:27.376Z,20.53
2018-12-04T12:13:57.772Z,15.17
2018-12-04T12:16:26.232Z,16.27
2018-12-04T12:18:54.765Z,18.83
2018-12-04T12:21:23.830Z,21.27
2018-12-04T12:23:52.302Z,19.87
2018-12-04T12:26:20.826Z,15.77
2018-12-04T12:28:49.269Z,18.43
2018-12-04T12:31:17.742Z,15.27
2018-12-04T12:33:46.295Z,17.63
2018-12-04T12:36:14.745Z,23.40
2018-12-04T12:38:43.334Z,16.60
2018-12-04T12:41:11.868Z,15.60
2018-12-04T12:43:40.331Z,18.10
2018-12-04T12:46:08.764Z,12.13
2018-12-04T12:48:37.276Z,18.40
2018-12-04T12:51:05.737Z,18.27
2018-12-04T12:53:34.206Z,13.90
2018-12-04T12:56:02.678Z,14.70
2018-12-04T12:58:31.168Z,12.80
2018-12-04T13:00:59.778Z,14.37
2018-12-04T13:03:28.250Z,15.43
2018-12-04T13:05:56.712Z,21.57
2018-12-04T13:08:25.178Z,22.87
2018-12-04T13:10:53.656Z,16.23
2018-12-04T13:13:22.110Z,19.63
2018-12-04T13:15:50.567Z,21.07
2018-12-04T13:18:19.068Z,44.43
2018-12-04T13:20:47.552Z,18.53
2018-12-04T13:23:16.149Z,36.90
2018-12-04T13:25:44.631Z,26.07
2018-12-04T13:28:13.135Z,19.70
2018-12-04T13:30:41.589Z,21.17
2018-12-04T13:33:10.107Z,21.87
2018-12-04T13:35:38.559Z,18.00
2018-12-04T13:38:07.028Z,16.03
2018-12-04T13:40:35.540Z,4.13
2018-12-04T13:43:04.004Z,4.20
2018-12-04T13:45:32.489Z,5.43
2018-12-04T13:48:01.105Z,5.03
2018-12-04T13:50:30.423Z,0.60
2018-12-04T13:52:58.866Z,0.40
2018-12-04T13:55:27.426Z,0.80
2018-12-04T13:57:57.629Z,1.07
2018-12-04T14:00:26.150Z,0.97
2018-12-04T14:02:55.381Z,0.50
2018-12-04T14:05:24.072Z,0.50
2018-12-04T14:07:52.543Z,0.40
2018-12-04T14:10:21.184Z,0.93
2018-12-04T14:12:49.629Z,1.97
2018-12-04T14:15:18.132Z,0.10
2018-12-04T14:17:47.466Z,0.10
2018-12-04T14:20:16.239Z,0.37
2018-12-04T14:22:46.916Z,0.97
2018-12-04T14:25:16.504Z,0.00
2018-12-04T14:27:49.050Z,0.00
2018-12-04T14:30:15.616Z,0.10
2018-12-04T14:32:44.112Z,0.50
2018-12-04T14:35:12.608Z,0.00
2018-12-04T14:37:41.199Z,0.07
2018-12-04T14:40:09.728Z,33.97
2018-12-04T14:42:38.354Z,10.90
2018-12-04T14:45:07.219Z,0.33
2018-12-04T14:47:35.819Z,0.30
2018-12-04T14:50:05.864Z,2.50
2018-12-04T14:52:34.466Z,3.67
2018-12-04T14:55:04.825Z,2.63
2018-12-04T14:57:33.619Z,0.30
2018-12-04T15:00:02.529Z,0.30
2018-12-04T15:02:31.051Z,0.43
2018-12-04T15:04:59.552Z,5.27
2018-12-04T15:07:28.113Z,0.83
2018-12-04T15:09:56.613Z,0.20
2018-12-04T15:12:25.418Z,0.30
2018-12-04T15:14:57.368Z,0.30
2018-12-04T15:17:26.232Z,0.00
2018-12-04T15:19:55.152Z,0.40
2018-12-04T15:22:24.024Z,0.90
2018-12-04T15:24:52.464Z,0.57
2018-12-04T15:27:21.028Z,0.50
2018-12-04T15:29:49.628Z,1.63
2018-12-04T15:32:18.143Z,0.40
2018-12-04T15:34:46.710Z,0.50
2018-12-04T15:37:15.212Z,0.20
2018-12-04T15:39:45.604Z,0.30
2018-12-04T15:42:14.039Z,0.10
2018-12-04T15:44:42.685Z,0.00
2018-12-04T15:47:12.774Z,0.10
2018-12-04T15:49:41.443Z,0.57
2018-12-04T15:52:10.077Z,0.40
2018-12-04T15:54:38.626Z,0.20
2018-12-04T15:57:07.362Z,0.10
2018-12-04T15:59:35.865Z,0.10
2018-12-04T16:02:04.467Z,0.10
2018-12-04T16:04:32.983Z,3.73
2018-12-04T16:07:01.449Z,0.80
2018-12-04T16:09:29.892Z,1.23
2018-12-04T16:11:58.374Z,2.17
2018-12-04T16:14:30.146Z,4.23
2018-12-04T16:16:58.609Z,9.63
2018-12-04T16:19:27.540Z,9.77
2018-12-04T16:21:56.011Z,6.53
2018-12-04T16:24:24.492Z,4.90
2018-12-04T16:26:53.024Z,11.47
2018-12-04T16:29:21.554Z,15.70
2018-12-04T16:31:50.064Z,13.80
2018-12-04T16:34:18.774Z,14.70
2018-12-04T16:36:47.494Z,10.33
2018-12-04T16:39:15.967Z,7.87
2018-12-04T16:41:44.784Z,5.30
2018-12-04T16:44:13.268Z,10.13
2018-12-04T16:46:41.853Z,4.07
2018-12-04T16:49:10.342Z,12.77
2018-12-04T16:51:38.847Z,8.37
2018-12-04T16:54:08.972Z,3.70
2018-12-04T16:56:37.998Z,7.60
2018-12-04T16:59:06.500Z,3.00
2018-12-04T17:01:34.966Z,5.03
2018-12-04T17:04:03.484Z,4.77
2018-12-04T17:06:31.968Z,7.87
2018-12-04T17:09:00.486Z,6.20
2018-12-04T17:11:29.129Z,8.63
2018-12-04T17:13:57.693Z,5.23
2018-12-04T17:16:26.191Z,8.07
2018-12-04T17:18:54.721Z,2.40
2018-12-04T17:21:23.245Z,2.03
2018-12-04T17:23:51.734Z,4.33
2018-12-04T17:26:20.252Z,2.00
2018-12-04T17:28:48.890Z,1.33
2018-12-04T17:31:17.465Z,0.47
2018-12-04T17:33:45.946Z,1.90
2018-12-04T17:36:14.475Z,0.63
2018-12-04T17:38:43.105Z,1.70
2018-12-04T17:41:11.576Z,1.47
2018-12-04T17:43:40.456Z,2.33
2018-12-04T17:46:08.985Z,1.90
2018-12-04T17:48:38.588Z,1.63
2018-12-04T17:51:07.250Z,3.40
2018-12-04T17:53:36.176Z,2.00
2018-12-04T17:56:04.940Z,1.23
2018-12-04T17:58:33.491Z,1.80
2018-12-04T18:01:02.103Z,1.27
2018-12-04T18:03:30.675Z,3.17
2018-12-04T18:05:59.272Z,4.87
2018-12-04T18:08:27.786Z,5.70
2018-12-04T18:10:56.343Z,6.73
2018-12-04T18:13:24.962Z,17.57
2018-12-04T18:15:53.591Z,5.93
2018-12-04T18:18:22.187Z,7.60
2018-12-04T18:20:50.789Z,10.20
2018-12-04T18:23:19.582Z,6.90
2018-12-04T18:25:48.169Z,6.47
2018-12-04T18:28:17.429Z,6.77
2018-12-04T18:30:46.715Z,5.23
2018-12-04T18:33:15.952Z,7.30
2018-12-04T18:35:44.469Z,6.50
2018-12-04T18:38:13.040Z,5.53
2018-12-04T18:40:41.529Z,4.30
2018-12-04T18:43:10.129Z,5.40
2018-12-04T18:45:38.569Z,7.50
2018-12-04T18:48:07.022Z,6.10
2018-12-04T18:50:35.548Z,5.27
2018-12-04T18:53:04.109Z,8.33
2018-12-04T18:55:33.426Z,10.30
2018-12-04T18:58:01.988Z,7.00
2018-12-04T19:00:30.542Z,6.70
2018-12-04T19:02:59.303Z,9.70
2018-12-04T19:05:27.889Z,8.37
2018-12-04T19:07:56.397Z,8.03
2018-12-04T19:10:25.010Z,6.67
2018-12-04T19:12:53.951Z,9.60
2018-12-04T19:15:22.472Z,9.57
2018-12-04T19:17:51.020Z,6.23
2018-12-04T19:20:19.665Z,7.90
2018-12-04T19:22:48.176Z,9.43
2018-12-04T19:25:16.631Z,11.57
2018-12-04T19:27:45.145Z,11.87
2018-12-04T19:30:15.087Z,11.23
2018-12-04T19:32:43.525Z,11.57
2018-12-04T19:35:12.084Z,8.60
2018-12-04T19:37:40.687Z,6.93
2018-12-04T19:40:09.641Z,10.50
2018-12-04T19:42:40.342Z,18.73
2018-12-04T19:45:08.856Z,22.20
2018-12-04T19:47:37.330Z,26.23
2018-12-04T19:50:07.317Z,28.97
2018-12-04T19:52:36.195Z,13.13
2018-12-04T19:55:04.854Z,13.33
2018-12-04T19:57:33.537Z,17.63
2018-12-04T20:00:02.337Z,18.43
2018-12-04T20:02:30.820Z,12.17
2018-12-04T20:04:59.485Z,16.43
2018-12-04T20:07:28.570Z,8.97
2018-12-04T20:09:59.001Z,10.10
2018-12-04T20:12:27.685Z,11.23
2018-12-04T20:14:57.282Z,11.30
2018-12-04T20:17:25.847Z,11.90
2018-12-04T20:19:55.555Z,14.40
2018-12-04T20:22:24.486Z,12.43
2018-12-04T20:24:53.251Z,11.70
2018-12-04T20:27:21.842Z,8.03
2018-12-04T20:29:50.673Z,7.50
2018-12-04T20:32:19.216Z,7.27
2018-12-04T20:34:47.736Z,26.93
2018-12-04T20:37:16.710Z,9.63
2018-12-04T20:39:45.431Z,7.77
2018-12-04T20:42:14.239Z,7.63
2018-12-04T20:44:42.893Z,8.80
2018-12-04T20:47:11.693Z,11.10
2018-12-04T20:49:40.349Z,7.10
2018-12-04T20:52:09.576Z,8.23
2018-12-04T20:54:38.039Z,9.03
2018-12-04T20:57:06.562Z,6.03
2018-12-04T20:59:35.903Z,6.97
2018-12-04T21:02:04.756Z,9.53
2018-12-04T21:04:34.514Z,8.77
2018-12-04T21:07:03.675Z,8.93
2018-12-04T21:09:32.250Z,9.63
2018-12-04T21:12:00.937Z,9.37
2018-12-04T21:14:29.736Z,7.87
2018-12-04T21:16:59.232Z,10.70
2018-12-04T21:19:27.807Z,9.80
2018-12-04T21:21:56.637Z,9.87
2018-12-04T21:24:33.463Z,9.70
2018-12-04T21:27:13.149Z,8.70
2018-12-04T21:29:47.643Z,8.83
2018-12-04T21:32:21.896Z,8.30
2018-12-04T21:34:56.090Z,11.93
2018-12-04T21:37:30.578Z,8.87
2018-12-04T21:40:05.214Z,9.10
2018-12-04T21:42:39.280Z,10.23
2018-12-04T21:48:10.819Z,9.97
2018-12-04T21:50:39.301Z,11.60
2018-12-04T21:53:07.813Z,9.67
2018-12-04T21:55:36.456Z,9.47
2018-12-04T21:58:04.940Z,6.43
2018-12-04T22:00:33.408Z,7.67
2018-12-04T22:03:01.842Z,4.87
2018-12-04T22:05:30.266Z,10.10
2018-12-04T22:07:58.710Z,9.23
2018-12-04T22:10:27.184Z,12.10
2018-12-04T22:12:58.471Z,8.73
2018-12-04T22:15:26.877Z,11.90
2018-12-04T22:17:55.275Z,10.67
2018-12-04T22:20:23.730Z,9.87
2018-12-04T22:22:52.289Z,9.87
2018-12-04T22:25:21.139Z,6.43
2018-12-04T22:27:50.102Z,7.50
2018-12-04T22:30:18.656Z,6.80
2018-12-04T22:32:47.112Z,8.10
2018-12-04T22:35:15.566Z,7.73
2018-12-04T22:37:44.024Z,7.17
2018-12-04T22:40:12.641Z,6.93
2018-12-04T22:42:41.119Z,6.60
2018-12-04T22:45:15.211Z,6.97
2018-12-04T22:47:43.752Z,7.57
2018-12-04T22:50:12.386Z,6.53
2018-12-04T22:52:40.861Z,6.30
2018-12-04T22:55:09.344Z,6.40
2018-12-04T22:57:37.819Z,7.60
2018-12-04T23:00:11.215Z,8.57
2018-12-04T23:02:39.652Z,6.77
2018-12-04T23:05:08.121Z,5.83
2018-12-04T23:07:36.607Z,5.77
2018-12-04T23:10:08.610Z,6.37
2018-12-04T23:12:37.066Z,7.83
2018-12-04T23:15:06.047Z,6.80
2018-12-04T23:17:34.480Z,6.20
2018-12-04T23:20:02.982Z,5.73
2018-12-04T23:22:31.405Z,7.00
2018-12-04T23:25:00.307Z,10.47
2018-12-04T23:27:29.358Z,7.20
2018-12-04T23:29:57.808Z,5.40
2018-12-04T23:32:26.208Z,5.10
2018-12-04T23:34:54.661Z,7.03
2018-12-04T23:37:23.122Z,6.13
2018-12-04T23:39:51.544Z,6.43
2018-12-04T23:42:20.164Z,6.60
2018-12-04T23:44:50.328Z,5.57
2018-12-04T23:47:20.180Z,5.63
2018-12-04T23:49:50.368Z,6.50
2018-12-04T23:52:18.838Z,5.50
2018-12-04T23:54:47.337Z,7.33
2018-12-04T23:57:15.826Z,5.57
2018-12-04T23:59:44.240Z,5.20
